Time;durP1;ratioP1;P1;durP2;ratioP2;P2;SDS_P1;SDS_P2;PMS_P1;PMS_P2;Temp;Humidity;BMP_temperature;BMP_pressure;BME280_temperature;BME280_humidity;BME280_pressure;Samples;Min_cycle;Max_cycle;Signal;HPM_P1;HPM_P2
2023/05/28 00:01:24;;;;;;;17.50;5.20;;;12.50;99.90;;;;;;5018039;28;20080;-79
2023/05/28 00:04:10;;;;;;;19.83;5.13;;;12.50;99.90;;;;;;5032557;28;20087;-76
2023/05/28 00:06:56;;;;;;;14.38;5.05;;;12.50;99.90;;;;;;5034179;28;20041;-77
2023/05/28 00:09:42;;;;;;;19.17;4.97;;;12.50;99.90;;;;;;5033763;28;20045;-76
2023/05/28 00:12:29;;;;;;;20.00;5.03;;;12.60;99.90;;;;;;5032417;28;20513;-78
2023/05/28 00:15:15;;;;;;;20.05;4.63;;;12.60;99.90;;;;;;5032948;28;20111;-77
2023/05/28 00:18:01;;;;;;;22.52;5.65;;;12.60;99.90;;;;;;5031426;28;20489;-79
2023/05/28 00:20:51;;;;;;;15.43;4.88;;;12.60;99.90;;;;;;5033459;28;20041;-76
2023/05/28 00:23:37;;;;;;;14.60;4.57;;;12.60;99.90;;;;;;5016352;28;20416;-81
2023/05/28 00:26:23;;;;;;;19.77;4.82;;;12.50;99.90;;;;;;5033597;28;20049;-81
2023/05/28 00:29:09;;;;;;;12.50;4.65;;;12.50;99.90;;;;;;5033294;28;20394;-82
2023/05/28 00:31:56;;;;;;;24.10;5.88;;;12.40;99.90;;;;;;5032730;28;20046;-82
2023/05/28 00:34:42;;;;;;;25.88;5.82;;;12.40;99.90;;;;;;5033250;28;20192;-77
2023/05/28 00:37:28;;;;;;;18.33;5.25;;;12.40;99.90;;;;;;5032860;28;20144;-78
2023/05/28 00:40:17;;;;;;;17.23;5.05;;;12.30;99.90;;;;;;5000182;28;20488;-80
2023/05/28 00:43:04;;;;;;;16.75;5.18;;;12.30;99.90;;;;;;5031334;28;20057;-77
2023/05/28 00:45:50;;;;;;;16.88;5.25;;;12.20;99.90;;;;;;5032628;28;20500;-79
2023/05/28 00:48:38;;;;;;;15.73;4.85;;;12.20;99.90;;;;;;5001405;28;20440;-78
2023/05/28 00:51:24;;;;;;;16.98;4.90;;;12.20;99.90;;;;;;5032783;28;20064;-80
2023/05/28 00:54:11;;;;;;;16.73;4.75;;;12.20;99.90;;;;;;5034263;28;20408;-78
2023/05/28 00:56:59;;;;;;;22.48;4.68;;;12.20;99.90;;;;;;5033364;28;20405;-76
2023/05/28 00:59:46;;;;;;;17.85;4.63;;;12.20;99.90;;;;;;5033475;28;20060;-77
2023/05/28 01:02:32;;;;;;;17.88;5.18;;;12.10;99.90;;;;;;5033540;28;20381;-77
2023/05/28 01:05:18;;;;;;;18.10;4.95;;;12.10;99.90;;;;;;5032848;28;20095;-77
2023/05/28 01:08:09;;;;;;;12.35;3.80;;;12.10;99.90;;;;;;5015152;28;20080;-75
2023/05/28 01:10:55;;;;;;;14.20;4.45;;;12.10;99.90;;;;;;5013277;28;20136;-77
2023/05/28 01:13:42;;;;;;;16.00;5.05;;;12.10;99.90;;;;;;5032446;28;20046;-76
2023/05/28 01:16:28;;;;;;;17.10;5.38;;;12.10;99.90;;;;;;5032466;28;20049;-76
2023/05/28 01:19:21;;;;;;;13.10;5.15;;;12.10;99.90;;;;;;5032310;28;20056;-76
2023/05/28 01:22:12;;;;;;;20.23;5.28;;;12.20;99.90;;;;;;5031368;28;20064;-74
2023/05/28 01:25:00;;;;;;;23.77;5.68;;;12.10;99.90;;;;;;5031912;28;20115;-77
2023/05/28 01:27:46;;;;;;;16.08;5.90;;;12.10;99.90;;;;;;5016960;28;20045;-76
2023/05/28 01:30:34;;;;;;;17.48;4.55;;;12.10;99.90;;;;;;5016896;28;20064;-76
2023/05/28 01:33:22;;;;;;;17.63;4.72;;;12.10;99.90;;;;;;5030706;28;20495;-74
2023/05/28 01:36:15;;;;;;;16.63;4.97;;;12.10;99.90;;;;;;5016982;28;20050;-76
2023/05/28 01:39:02;;;;;;;17.60;4.63;;;12.10;99.90;;;;;;5032549;28;20416;-77
2023/05/28 01:41:49;;;;;;;18.73;5.00;;;12.10;99.90;;;;;;5013515;28;20149;-77
2023/05/28 01:44:36;;;;;;;12.55;4.32;;;12.00;99.90;;;;;;5031900;28;20045;-77
2023/05/28 01:47:23;;;;;;;17.88;4.20;;;12.00;99.90;;;;;;5012892;28;20061;-78
2023/05/28 01:50:10;;;;;;;16.55;4.70;;;11.90;99.90;;;;;;5003013;28;20046;-76
2023/05/28 01:52:56;;;;;;;13.52;4.25;;;11.90;99.90;;;;;;5030947;28;20097;-76
2023/05/28 01:55:42;;;;;;;9.63;4.20;;;11.90;99.90;;;;;;5029324;28;20041;-77
2023/05/28 01:58:29;;;;;;;13.73;4.30;;;11.90;99.90;;;;;;5029547;28;20057;-77
2023/05/28 02:01:27;;;;;;;16.77;4.20;;;11.80;99.90;;;;;;5030399;28;20080;-75
2023/05/28 02:04:13;;;;;;;16.02;4.78;;;11.80;99.90;;;;;;5015893;28;20061;-79
2023/05/28 02:06:59;;;;;;;12.90;4.30;;;11.80;99.90;;;;;;5018891;28;20057;-80
2023/05/28 02:09:46;;;;;;;12.35;4.95;;;11.80;99.90;;;;;;5030356;28;20049;-78
2023/05/28 02:12:32;;;;;;;13.75;4.20;;;11.70;99.90;;;;;;5029881;28;20103;-77
2023/05/28 02:15:21;;;;;;;14.77;4.78;;;11.80;99.90;;;;;;5011696;28;20417;-78
2023/05/28 02:18:10;;;;;;;13.75;4.25;;;11.60;99.90;;;;;;5013589;28;20096;-79
2023/05/28 02:20:56;;;;;;;19.38;4.70;;;11.60;99.90;;;;;;5030169;28;20048;-79
2023/05/28 02:23:46;;;;;;;11.65;4.00;;;11.50;99.90;;;;;;5012962;28;20049;-77
2023/05/28 02:26:32;;;;;;;14.32;4.20;;;11.50;99.90;;;;;;5012955;28;20550;-77
2023/05/28 02:29:19;;;;;;;18.48;4.47;;;11.50;99.90;;;;;;5013547;28;20103;-80
2023/05/28 02:32:05;;;;;;;18.35;4.53;;;11.50;99.90;;;;;;5030331;28;20481;-77
2023/05/28 02:34:54;;;;;;;10.90;4.28;;;11.50;99.90;;;;;;5030164;28;20410;-77
2023/05/28 02:37:40;;;;;;;15.80;5.57;;;11.50;99.90;;;;;;5029358;28;20089;-79
2023/05/28 02:40:27;;;;;;;16.92;4.28;;;11.50;99.90;;;;;;5030772;28;20096;-79
2023/05/28 02:43:13;;;;;;;13.98;4.55;;;11.50;99.90;;;;;;5030834;28;20056;-79
2023/05/28 02:45:59;;;;;;;12.90;4.05;;;11.50;99.90;;;;;;5032313;28;20072;-79
2023/05/28 02:48:45;;;;;;;14.70;4.47;;;11.50;99.90;;;;;;5032817;28;20057;-83
2023/05/28 02:51:32;;;;;;;19.33;4.80;;;11.50;99.90;;;;;;5003808;28;20049;-76
2023/05/28 02:54:18;;;;;;;13.27;4.53;;;11.50;99.90;;;;;;5002190;28;20046;-78
2023/05/28 02:57:04;;;;;;;14.90;4.38;;;11.50;99.90;;;;;;5011518;28;20443;-82
2023/05/28 02:59:50;;;;;;;12.52;4.22;;;11.50;99.90;;;;;;5030749;28;20081;-78
2023/05/28 03:02:36;;;;;;;15.35;5.25;;;11.50;99.90;;;;;;5029231;28;20128;-80
2023/05/28 03:05:22;;;;;;;12.32;4.18;;;11.40;99.90;;;;;;5031607;28;20085;-80
2023/05/28 03:08:09;;;;;;;17.10;4.47;;;11.40;99.90;;;;;;5031174;28;20081;-80
2023/05/28 03:10:55;;;;;;;13.70;5.05;;;11.30;99.90;;;;;;5012688;28;20053;-80
2023/05/28 03:13:41;;;;;;;15.32;4.07;;;11.30;99.90;;;;;;5012018;28;20104;-78
2023/05/28 03:16:27;;;;;;;14.65;3.88;;;11.30;99.90;;;;;;5029830;28;20489;-82
2023/05/28 03:19:13;;;;;;;11.27;3.55;;;11.20;99.90;;;;;;5013036;28;20548;-78
2023/05/28 03:21:59;;;;;;;17.15;4.03;;;11.10;99.90;;;;;;5028939;28;20783;-82
2023/05/28 03:24:46;;;;;;;12.27;4.82;;;11.10;99.90;;;;;;5002841;28;20045;-82
2023/05/28 03:27:33;;;;;;;16.10;3.97;;;11.10;99.90;;;;;;5036284;28;20045;-82
2023/05/28 03:30:19;;;;;;;17.55;4.38;;;11.00;99.90;;;;;;5030475;28;20508;-77
2023/05/28 03:33:05;;;;;;;13.10;4.80;;;11.00;99.90;;;;;;5029996;28;20053;-77
2023/05/28 03:35:51;;;;;;;14.02;4.10;;;11.00;99.90;;;;;;5029448;28;20049;-81
2023/05/28 03:38:38;;;;;;;13.80;4.60;;;11.00;99.90;;;;;;5030169;28;20042;-75
2023/05/28 03:41:25;;;;;;;13.25;4.80;;;11.00;99.90;;;;;;5013252;28;20056;-80
2023/05/28 03:44:11;;;;;;;12.52;4.13;;;11.10;99.90;;;;;;5012097;28;20057;-81
2023/05/28 03:46:57;;;;;;;10.65;4.00;;;11.10;99.90;;;;;;5014854;28;20049;-81
2023/05/28 03:49:43;;;;;;;12.05;4.57;;;11.10;99.90;;;;;;5014838;28;20053;-81
2023/05/28 03:52:29;;;;;;;8.35;3.85;;;11.10;99.90;;;;;;5033469;28;20061;-81
2023/05/28 03:55:16;;;;;;;11.95;4.72;;;11.10;99.90;;;;;;5033536;28;20046;-80
2023/05/28 03:58:02;;;;;;;17.20;4.35;;;11.10;99.90;;;;;;5015568;28;20068;-82
2023/05/28 04:00:48;;;;;;;13.40;4.15;;;11.20;99.90;;;;;;5032218;28;20053;-78
2023/05/28 04:03:34;;;;;;;16.30;4.88;;;11.30;99.90;;;;;;5019524;28;20057;-80
2023/05/28 04:06:21;;;;;;;18.42;4.60;;;11.40;99.90;;;;;;5033630;28;20562;-75
2023/05/28 04:09:07;;;;;;;10.77;4.03;;;11.50;99.90;;;;;;5033572;28;20132;-76
2023/05/28 04:11:54;;;;;;;14.50;4.43;;;11.50;99.90;;;;;;5033476;28;20493;-80
2023/05/28 04:14:41;;;;;;;19.63;4.47;;;11.60;99.90;;;;;;5017876;28;20413;-81
2023/05/28 04:17:27;;;;;;;16.13;4.30;;;11.70;99.90;;;;;;5033154;28;20041;-78
2023/05/28 04:20:13;;;;;;;14.98;4.70;;;11.70;99.90;;;;;;5032168;28;20079;-80
2023/05/28 04:22:59;;;;;;;16.65;4.07;;;11.80;99.90;;;;;;5032549;28;20062;-76
2023/05/28 04:25:45;;;;;;;19.83;4.72;;;11.90;99.90;;;;;;5016880;28;20064;-83
2023/05/28 04:28:33;;;;;;;15.73;5.05;;;11.90;99.90;;;;;;5033969;28;20132;-79
2023/05/28 04:31:19;;;;;;;15.88;4.88;;;12.00;99.90;;;;;;5020928;28;20057;-82
2023/05/28 04:34:06;;;;;;;12.20;4.28;;;12.10;99.90;;;;;;5036734;28;20061;-82
2023/05/28 04:36:52;;;;;;;16.42;4.45;;;12.10;99.90;;;;;;5037717;28;20053;-81
2023/05/28 04:39:38;;;;;;;17.80;4.68;;;12.10;99.90;;;;;;5039757;28;20050;-79
2023/05/28 04:42:24;;;;;;;18.92;4.90;;;12.20;99.90;;;;;;5020142;28;20111;-82
2023/05/28 04:45:10;;;;;;;16.67;4.53;;;12.30;99.90;;;;;;5038773;28;20128;-75
2023/05/28 04:47:57;;;;;;;18.20;4.00;;;12.30;99.90;;;;;;5034973;28;20493;-75
2023/05/28 04:50:43;;;;;;;16.48;3.90;;;12.40;99.90;;;;;;5035603;28;20052;-81
2023/05/28 04:53:31;;;;;;;19.40;4.68;;;12.40;99.90;;;;;;5036697;28;20058;-77
2023/05/28 04:56:17;;;;;;;16.77;4.28;;;12.50;99.90;;;;;;5016633;28;20050;-75
2023/05/28 04:59:04;;;;;;;16.45;3.83;;;12.60;99.90;;;;;;5014326;28;20049;-75
2023/05/28 05:01:51;;;;;;;14.18;4.57;;;12.60;99.90;;;;;;5013325;28;20059;-76
2023/05/28 05:04:37;;;;;;;14.40;4.38;;;12.60;99.90;;;;;;5032817;28;20041;-76
2023/05/28 05:07:23;;;;;;;19.83;3.90;;;12.70;99.90;;;;;;5014644;28;20132;-75
2023/05/28 05:10:10;;;;;;;17.27;4.82;;;12.80;99.90;;;;;;5031794;28;20536;-76
2023/05/28 05:12:56;;;;;;;13.30;4.07;;;12.80;99.90;;;;;;5031827;28;20653;-77
2023/05/28 05:15:42;;;;;;;14.25;4.03;;;12.90;99.90;;;;;;5030922;28;20045;-76
2023/05/28 05:18:28;;;;;;;15.82;4.85;;;12.90;99.90;;;;;;5030154;28;20084;-77
2023/05/28 05:21:14;;;;;;;14.48;4.40;;;13.00;99.90;;;;;;5013409;28;20077;-79
2023/05/28 05:24:00;;;;;;;21.73;4.53;;;13.10;99.90;;;;;;4999498;28;20053;-77
2023/05/28 05:26:46;;;;;;;16.42;3.97;;;13.20;99.90;;;;;;5013774;28;20115;-73
2023/05/28 05:29:32;;;;;;;13.45;4.28;;;13.20;99.90;;;;;;5013341;28;20493;-80
2023/05/28 05:32:18;;;;;;;14.35;4.53;;;13.30;99.90;;;;;;5030725;28;20061;-81
2023/05/28 05:35:06;;;;;;;12.98;3.92;;;13.40;99.90;;;;;;5016847;28;20049;-82
2023/05/28 05:37:52;;;;;;;15.68;4.32;;;13.50;99.90;;;;;;5018688;28;20054;-85
2023/05/28 05:40:38;;;;;;;18.40;4.20;;;13.50;99.90;;;;;;5030573;28;20107;-82
2023/05/28 05:43:24;;;;;;;21.33;4.75;;;13.70;99.90;;;;;;5014039;28;20053;-82
2023/05/28 05:46:10;;;;;;;15.68;3.75;;;13.80;99.90;;;;;;5031664;28;20071;-80
2023/05/28 05:48:56;;;;;;;14.25;3.17;;;13.80;99.90;;;;;;5014195;28;20061;-80
2023/05/28 11:37:36;;;;;;;9.57;2.60;;;24.50;76.40;;;;;;5046356;28;20443;-77
2023/05/28 11:40:22;;;;;;;10.38;2.65;;;24.40;77.80;;;;;;5049487;28;20147;-76
2023/05/28 11:43:08;;;;;;;21.38;3.38;;;24.50;78.60;;;;;;5048166;28;20134;-79
2023/05/28 11:46:00;;;;;;;7.53;2.83;;;24.60;75.10;;;;;;5048122;28;20500;-78
2023/05/28 11:48:46;;;;;;;9.95;2.92;;;24.10;76.90;;;;;;5048327;28;20049;-78
2023/05/28 11:51:32;;;;;;;12.82;2.75;;;24.20;75.50;;;;;;5032084;28;20118;-76
2023/05/28 11:54:18;;;;;;;9.90;2.78;;;24.30;75.70;;;;;;5037961;28;20045;-76
2023/05/28 11:57:06;;;;;;;10.43;2.88;;;23.90;75.40;;;;;;5037820;28;20045;-75
2023/05/28 11:59:55;;;;;;;11.02;3.33;;;24.40;77.00;;;;;;5020171;28;20052;-74
2023/05/28 12:02:48;;;;;;;8.77;2.90;;;24.70;75.50;;;;;;5036766;28;20455;-75
2023/05/28 12:05:38;;;;;;;12.05;3.22;;;24.50;73.60;;;;;;5037466;28;20057;-80
2023/05/28 12:08:26;;;;;;;12.68;3.25;;;24.40;73.00;;;;;;5013655;28;20132;-74
2023/05/28 12:11:13;;;;;;;10.02;2.90;;;24.50;75.50;;;;;;5011057;28;20072;-78
2023/05/28 12:14:11;;;;;;;10.48;2.78;;;24.50;75.90;;;;;;5030081;28;20056;-78
2023/05/28 12:17:06;;;;;;;10.57;3.10;;;24.50;74.70;;;;;;5032756;28;20094;-81
2023/05/28 12:19:52;;;;;;;12.07;3.47;;;24.50;73.40;;;;;;5051490;28;20098;-79
2023/05/28 12:22:39;;;;;;;9.40;2.88;;;24.50;75.70;;;;;;5045421;28;20048;-79
2023/05/28 12:25:25;;;;;;;11.65;3.10;;;24.70;73.90;;;;;;5046872;28;20492;-80
2023/05/28 12:28:16;;;;;;;12.63;3.13;;;24.70;74.60;;;;;;5042446;28;20064;-82
2023/05/28 12:31:02;;;;;;;11.63;3.47;;;24.70;74.50;;;;;;5029220;28;20049;-79
2023/05/28 12:33:49;;;;;;;13.75;3.35;;;25.00;74.00;;;;;;5037125;28;20053;-82
2023/05/28 12:36:35;;;;;;;12.45;2.50;;;24.80;72.80;;;;;;5050223;28;20041;-79
2023/05/28 12:39:21;;;;;;;17.13;3.22;;;25.20;74.90;;;;;;5042061;28;20052;-79
2023/05/28 12:42:07;;;;;;;10.60;3.05;;;25.30;74.90;;;;;;5061028;28;20052;-78
2023/05/28 12:44:53;;;;;;;9.52;3.40;;;24.80;74.70;;;;;;5063400;28;20128;-80
2023/05/28 12:47:40;;;;;;;12.88;3.33;;;25.40;74.70;;;;;;5060008;28;20049;-79
2023/05/28 12:50:26;;;;;;;15.80;3.65;;;25.50;75.60;;;;;;5052829;28;20045;-80
2023/05/28 12:53:12;;;;;;;11.70;3.60;;;25.80;75.90;;;;;;5051066;28;20082;-81
2023/05/28 12:55:58;;;;;;;9.75;2.90;;;26.00;73.90;;;;;;5052390;28;20044;-80
2023/05/28 12:58:44;;;;;;;11.23;2.58;;;25.50;75.90;;;;;;5052210;28;20048;-80
2023/05/28 13:01:30;;;;;;;10.20;3.15;;;25.70;76.70;;;;;;5051175;28;20496;-79
2023/05/28 13:04:17;;;;;;;7.80;2.65;;;26.00;75.80;;;;;;5055317;28;20103;-80
2023/05/28 13:07:03;;;;;;;12.02;2.67;;;25.60;75.00;;;;;;5045191;28;20052;-80
2023/05/28 13:09:49;;;;;;;9.68;2.97;;;25.20;75.20;;;;;;5048789;28;20044;-83
2023/05/28 13:12:37;;;;;;;10.52;2.83;;;25.30;76.20;;;;;;5063044;28;20049;-80
2023/05/28 13:15:23;;;;;;;13.90;2.95;;;25.70;77.20;;;;;;5050733;28;20046;-80
2023/05/28 13:18:09;;;;;;;8.98;2.60;;;25.30;75.60;;;;;;5063434;28;20049;-84
2023/05/28 13:20:55;;;;;;;11.13;2.88;;;25.40;76.30;;;;;;5064520;28;20128;-80
2023/05/28 13:23:42;;;;;;;9.27;2.78;;;25.90;76.60;;;;;;5060827;28;20052;-81
2023/05/28 13:26:31;;;;;;;10.20;2.88;;;25.50;75.90;;;;;;5060702;28;20041;-82
2023/05/28 13:29:17;;;;;;;8.60;2.80;;;25.20;77.50;;;;;;5054099;28;20052;-79
2023/05/28 13:32:03;;;;;;;10.95;3.67;;;25.60;76.60;;;;;;5044182;28;20052;-78
2023/05/28 13:34:50;;;;;;;10.10;3.10;;;25.80;76.20;;;;;;5041734;28;20048;-80
2023/05/28 13:37:36;;;;;;;10.60;3.10;;;25.90;75.90;;;;;;5062041;28;20053;-78
2023/05/28 13:40:24;;;;;;;11.30;3.08;;;26.10;75.70;;;;;;5058672;28;20132;-79
2023/05/28 13:43:11;;;;;;;10.45;3.10;;;26.50;76.90;;;;;;5041220;28;20102;-81
2023/05/28 13:45:58;;;;;;;9.95;3.17;;;26.50;76.80;;;;;;5044280;28;20052;-79
2023/05/28 13:48:44;;;;;;;10.57;3.28;;;26.90;76.50;;;;;;5047529;28;20406;-79
2023/05/28 13:51:31;;;;;;;10.25;2.95;;;26.80;76.10;;;;;;5043806;28;20059;-79
2023/05/28 13:54:17;;;;;;;8.55;2.92;;;26.80;75.50;;;;;;5061843;28;20509;-78
2023/05/28 13:57:05;;;;;;;9.10;3.03;;;27.00;75.70;;;;;;5059505;28;20077;-76
2023/05/28 13:59:51;;;;;;;12.05;3.00;;;26.90;74.50;;;;;;5060389;28;20128;-78
2023/05/28 14:02:37;;;;;;;13.07;3.28;;;27.10;73.90;;;;;;5061183;28;20484;-77
2023/05/28 14:05:24;;;;;;;11.02;2.85;;;27.20;73.90;;;;;;5042419;28;20068;-77
2023/05/28 14:08:11;;;;;;;10.98;3.05;;;26.90;74.40;;;;;;5059672;28;20570;-80
2023/05/28 14:10:57;;;;;;;12.80;3.88;;;27.00;75.40;;;;;;5040140;28;20053;-77
2023/05/28 14:13:44;;;;;;;11.85;3.40;;;27.10;74.20;;;;;;5042706;28;20110;-76
2023/05/28 14:16:30;;;;;;;16.67;4.32;;;27.50;73.40;;;;;;5060152;28;20047;-78
2023/05/28 14:19:16;;;;;;;10.68;3.83;;;27.70;72.60;;;;;;5059306;28;20067;-77
2023/05/28 14:22:02;;;;;;;12.02;4.03;;;27.90;71.50;;;;;;5057369;28;20128;-76
2023/05/28 14:24:49;;;;;;;10.52;3.75;;;27.40;72.60;;;;;;5057819;28;21898;-77
2023/05/28 14:27:35;;;;;;;10.75;3.78;;;27.60;71.20;;;;;;5055779;28;20056;-79
2023/05/28 14:30:21;;;;;;;11.57;4.25;;;27.90;70.90;;;;;;5059028;28;20391;-74
2023/05/28 14:33:09;;;;;;;12.23;4.20;;;27.60;70.20;;;;;;5055203;28;20056;-76
2023/05/28 14:35:55;;;;;;;14.02;5.40;;;27.00;71.00;;;;;;5069953;28;20057;-77
2023/05/28 14:38:41;;;;;;;13.77;4.50;;;26.50;71.60;;;;;;5052627;28;20102;-75
2023/05/28 14:41:27;;;;;;;18.92;4.90;;;26.00;72.30;;;;;;5052744;28;20048;-78
2023/05/28 14:44:14;;;;;;;11.85;3.47;;;25.20;73.60;;;;;;5071741;28;20186;-83
2023/05/28 14:47:00;;;;;;;17.88;4.72;;;24.50;74.80;;;;;;5057157;28;20482;-79
2023/05/28 14:49:46;;;;;;;11.65;3.65;;;23.90;77.50;;;;;;5073784;28;20106;-82
2023/05/28 14:52:32;;;;;;;14.65;4.65;;;24.00;78.40;;;;;;5059242;28;20063;-75
2023/05/28 14:55:19;;;;;;;20.73;4.78;;;23.80;78.50;;;;;;5057819;28;20106;-77
2023/05/28 14:58:05;;;;;;;10.93;4.00;;;23.20;79.10;;;;;;5057798;28;20186;-76
2023/05/28 15:00:51;;;;;;;13.95;4.50;;;23.00;81.30;;;;;;5044015;28;20049;-79
2023/05/28 15:03:37;;;;;;;10.55;4.47;;;23.00;81.60;;;;;;5043830;28;20051;-80
2023/05/28 15:06:24;;;;;;;12.95;4.65;;;22.90;81.80;;;;;;5041566;28;20496;-75
2023/05/28 15:09:10;;;;;;;12.23;4.85;;;22.50;82.70;;;;;;5058534;28;20507;-82
2023/05/28 15:11:56;;;;;;;9.95;4.05;;;22.20;84.40;;;;;;5046200;28;20127;-75
2023/05/28 15:14:42;;;;;;;15.90;4.38;;;22.20;85.30;;;;;;5050770;28;20056;-74
2023/05/28 15:17:29;;;;;;;11.73;4.25;;;22.20;86.10;;;;;;5050072;28;20132;-79
2023/05/28 15:20:15;;;;;;;15.45;4.75;;;22.00;86.40;;;;;;5050298;28;20049;-76
2023/05/28 15:23:01;;;;;;;10.40;4.35;;;21.70;87.10;;;;;;5048105;28;20415;-78
2023/05/28 15:25:48;;;;;;;14.30;4.32;;;21.50;88.00;;;;;;5049988;28;20087;-76
2023/05/28 15:28:34;;;;;;;9.55;4.25;;;21.10;88.80;;;;;;5033135;28;20064;-77
2023/05/28 15:31:21;;;;;;;15.57;4.72;;;20.90;90.00;;;;;;5042579;28;20049;-76
2023/05/28 15:34:08;;;;;;;16.27;4.72;;;20.80;90.70;;;;;;5051146;28;20065;-76
2023/05/28 15:36:54;;;;;;;10.70;4.05;;;20.70;90.90;;;;;;5049555;28;20056;-76
2023/05/28 15:39:41;;;;;;;13.98;4.03;;;20.60;91.50;;;;;;5035364;28;20053;-74
2023/05/28 15:42:27;;;;;;;17.33;4.47;;;20.60;91.90;;;;;;5033623;28;20531;-77
2023/05/28 15:45:14;;;;;;;13.77;4.50;;;20.30;92.60;;;;;;5052695;28;20084;-74
2023/05/28 15:48:01;;;;;;;15.73;4.65;;;20.10;94.00;;;;;;5034524;28;20140;-78
2023/05/28 15:50:47;;;;;;;15.35;4.97;;;19.60;95.10;;;;;;5053504;28;20049;-76
2023/05/28 15:53:33;;;;;;;16.88;5.65;;;19.70;95.60;;;;;;5053072;28;20103;-74
2023/05/28 15:56:20;;;;;;;14.70;3.72;;;19.50;96.10;;;;;;5052849;28;20063;-75
2023/05/28 15:59:06;;;;;;;16.63;5.57;;;19.30;96.50;;;;;;5052998;28;20163;-79
2023/05/28 16:01:56;;;;;;;15.88;4.78;;;19.20;96.90;;;;;;5035374;28;20057;-82
2023/05/28 16:04:43;;;;;;;13.65;3.92;;;19.00;97.20;;;;;;5053104;28;20072;-81
2023/05/28 16:07:30;;;;;;;13.70;4.30;;;18.70;97.60;;;;;;5054019;28;20182;-77
2023/05/28 16:10:16;;;;;;;15.00;4.03;;;18.60;97.50;;;;;;5053145;28;20053;-78
2023/05/28 16:13:06;;;;;;;18.30;4.93;;;18.60;97.50;;;;;;5052982;28;20810;-79
2023/05/28 16:15:56;;;;;;;12.82;4.88;;;18.50;97.60;;;;;;5052699;28;20044;-75
2023/05/28 16:18:42;;;;;;;12.80;4.78;;;18.50;97.80;;;;;;5034430;28;20140;-80
2023/05/28 16:21:29;;;;;;;10.10;3.70;;;18.50;97.60;;;;;;5037865;28;20040;-76
2023/05/28 16:24:16;;;;;;;11.25;3.55;;;18.50;97.40;;;;;;5052676;28;20045;-79
2023/05/28 16:27:05;;;;;;;9.07;3.35;;;18.30;97.60;;;;;;5022060;28;20106;-78
2023/05/28 16:29:52;;;;;;;14.27;4.75;;;18.20;98.00;;;;;;5057206;28;20407;-82
2023/05/28 16:32:38;;;;;;;11.90;3.22;;;18.10;98.30;;;;;;5058695;28;20087;-77
2023/05/28 16:35:27;;;;;;;9.23;2.97;;;17.90;98.60;;;;;;5051653;28;20049;-77
2023/05/28 16:38:14;;;;;;;8.70;3.00;;;17.80;98.50;;;;;;5051026;28;20581;-80
2023/05/28 16:41:00;;;;;;;11.55;4.13;;;17.80;98.30;;;;;;5032651;28;20053;-79
2023/05/28 16:43:46;;;;;;;9.38;3.10;;;17.80;98.40;;;;;;5050580;28;20056;-77
2023/05/28 16:46:33;;;;;;;13.05;3.55;;;17.70;98.40;;;;;;5031852;28;20053;-77
2023/05/28 16:49:19;;;;;;;9.98;2.92;;;17.80;98.60;;;;;;5032668;28;20057;-78
2023/05/28 16:52:05;;;;;;;12.52;3.13;;;17.80;98.80;;;;;;5050343;28;20122;-82
2023/05/28 16:54:55;;;;;;;11.35;3.05;;;17.90;98.70;;;;;;5031150;28;20084;-78
2023/05/28 16:57:41;;;;;;;8.48;3.28;;;17.80;98.70;;;;;;5033975;28;20126;-79
2023/05/28 17:00:28;;;;;;;10.65;2.70;;;17.80;98.60;;;;;;5031756;28;20088;-77
2023/05/28 17:03:14;;;;;;;13.25;3.17;;;17.80;98.40;;;;;;5032401;28;20049;-77
2023/05/28 17:06:00;;;;;;;13.90;3.15;;;17.60;98.10;;;;;;5050108;28;20060;-80
2023/05/28 17:08:47;;;;;;;17.90;4.03;;;17.60;98.20;;;;;;5050729;28;20053;-78
2023/05/28 17:11:34;;;;;;;11.25;2.97;;;17.60;97.70;;;;;;5048311;28;20102;-79
2023/05/28 17:14:20;;;;;;;13.85;3.45;;;17.60;97.50;;;;;;5050888;28;20064;-77
2023/05/28 17:17:07;;;;;;;35.95;15.70;;;17.50;97.50;;;;;;5049854;28;20493;-78
2023/05/28 17:19:53;;;;;;;34.47;19.95;;;17.40;97.90;;;;;;5018267;28;20088;-81
2023/05/28 17:22:42;;;;;;;28.50;14.45;;;17.10;97.90;;;;;;5049353;28;20614;-77
2023/05/28 17:25:29;;;;;;;17.60;6.13;;;17.10;97.60;;;;;;5030026;28;20051;-77
2023/05/28 17:28:16;;;;;;;21.60;8.98;;;16.90;97.10;;;;;;5052501;28;20049;-80
2023/05/28 17:31:02;;;;;;;13.65;4.30;;;16.80;97.30;;;;;;5060589;28;20609;-81
2023/05/28 17:33:48;;;;;;;16.80;4.95;;;16.80;97.30;;;;;;5070712;28;20052;-75
2023/05/28 17:36:36;;;;;;;15.88;3.90;;;16.80;97.30;;;;;;5068992;28;20062;-75
2023/05/28 17:39:22;;;;;;;11.45;3.28;;;16.70;97.40;;;;;;5052983;28;20053;-79
2023/05/28 17:42:08;;;;;;;14.38;3.20;;;16.70;97.80;;;;;;5068168;28;20468;-78
2023/05/28 17:44:55;;;;;;;15.40;3.83;;;16.60;97.90;;;;;;5069329;28;20090;-76
2023/05/28 17:47:41;;;;;;;12.05;2.97;;;16.50;97.40;;;;;;5068479;28;20482;-72
2023/05/28 17:50:27;;;;;;;18.08;4.25;;;16.50;97.20;;;;;;5040872;28;20055;-77
2023/05/28 17:53:14;;;;;;;18.63;4.35;;;16.30;97.60;;;;;;5069708;28;20130;-81
2023/05/28 17:56:00;;;;;;;18.20;4.60;;;16.30;97.80;;;;;;5053474;28;20052;-74
2023/05/28 17:58:47;;;;;;;20.65;3.30;;;16.10;98.20;;;;;;5058869;28;20744;-77
2023/05/28 18:01:33;;;;;;;17.75;4.18;;;15.90;98.70;;;;;;5038261;28;20088;-75
2023/05/28 18:04:19;;;;;;;19.20;4.45;;;15.80;99.10;;;;;;5012359;28;20505;-78
2023/05/28 18:07:06;;;;;;;24.58;5.70;;;15.70;99.20;;;;;;5017224;28;20450;-76
2023/05/28 18:09:52;;;;;;;21.33;6.15;;;15.60;99.40;;;;;;5048954;28;20502;-76
2023/05/28 18:12:38;;;;;;;18.98;3.65;;;15.60;99.90;;;;;;5030566;28;20091;-75
2023/05/28 18:15:26;;;;;;;16.50;3.53;;;15.50;99.90;;;;;;5048232;28;20053;-79
2023/05/28 18:18:13;;;;;;;16.58;4.07;;;15.50;99.90;;;;;;5048063;28;20045;-75
2023/05/28 18:20:59;;;;;;;19.55;4.85;;;15.40;99.90;;;;;;5048573;28;20044;-79
2023/05/28 18:23:52;;;;;;;16.98;4.03;;;15.30;99.90;;;;;;5020069;28;20191;-84
2023/05/28 18:26:39;;;;;;;22.25;3.90;;;15.20;99.90;;;;;;5034059;28;20052;-76
2023/05/28 18:29:25;;;;;;;18.80;4.47;;;15.10;99.90;;;;;;5032133;28;20085;-78
2023/05/28 18:32:11;;;;;;;20.88;6.28;;;15.00;99.90;;;;;;5044065;28;20467;-79
2023/05/28 18:34:59;;;;;;;22.27;3.65;;;14.90;99.90;;;;;;5012324;28;20107;-79
2023/05/28 18:37:45;;;;;;;20.05;3.95;;;14.80;99.90;;;;;;5047801;28;20060;-78
2023/05/28 18:40:31;;;;;;;22.95;4.25;;;14.70;99.90;;;;;;5049205;28;20563;-79
2023/05/28 18:43:17;;;;;;;21.80;4.40;;;14.60;99.90;;;;;;5009255;28;20063;-78
2023/05/28 18:46:04;;;;;;;16.60;3.38;;;14.50;99.90;;;;;;5050026;28;20045;-78
2023/05/28 18:48:50;;;;;;;14.23;3.13;;;14.50;99.90;;;;;;5032458;28;20049;-78
2023/05/28 18:51:37;;;;;;;20.10;3.97;;;14.40;99.90;;;;;;5026686;28;20499;-78
2023/05/28 18:54:23;;;;;;;14.88;2.92;;;14.30;99.90;;;;;;5032496;28;20092;-78
2023/05/28 18:57:09;;;;;;;20.65;3.90;;;14.20;99.90;;;;;;5049616;28;20061;-77
2023/05/28 18:59:56;;;;;;;15.05;3.70;;;14.10;99.90;;;;;;5018515;28;20045;-77
2023/05/28 19:02:43;;;;;;;15.00;3.38;;;14.00;99.90;;;;;;5035449;28;20056;-80
2023/05/28 19:05:29;;;;;;;19.70;3.50;;;14.00;99.90;;;;;;5033065;28;20053;-80
2023/05/28 19:08:15;;;;;;;14.93;3.65;;;13.80;99.90;;;;;;5035842;28;20144;-78
2023/05/28 19:11:02;;;;;;;21.77;3.85;;;13.70;99.90;;;;;;5048880;28;20049;-79
2023/05/28 19:13:48;;;;;;;19.48;4.40;;;13.70;99.90;;;;;;5019734;28;20102;-78
2023/05/28 19:16:34;;;;;;;17.77;3.50;;;13.60;99.90;;;;;;5036435;28;20045;-79
2023/05/28 19:19:21;;;;;;;21.83;3.42;;;13.60;99.90;;;;;;5036288;28;20045;-76
2023/05/28 19:22:07;;;;;;;13.95;2.97;;;13.60;99.90;;;;;;5054090;28;20041;-79
2023/05/28 19:24:57;;;;;;;16.98;3.92;;;13.50;99.90;;;;;;5035337;28;20053;-78
2023/05/28 19:27:44;;;;;;;16.92;2.97;;;13.50;99.90;;;;;;5053131;28;20133;-77
2023/05/28 19:30:30;;;;;;;13.77;3.15;;;13.40;99.90;;;;;;5034927;28;20046;-77
2023/05/28 19:33:17;;;;;;;19.73;4.30;;;13.40;99.90;;;;;;5038547;28;20049;-77
2023/05/28 19:36:04;;;;;;;16.65;3.45;;;13.30;99.90;;;;;;5019547;28;20053;-77
2023/05/28 19:38:51;;;;;;;15.77;3.45;;;13.20;99.90;;;;;;5050134;28;20094;-78
2023/05/28 19:41:37;;;;;;;15.23;3.05;;;13.10;99.90;;;;;;5038610;28;20044;-78
2023/05/28 19:44:23;;;;;;;13.75;3.40;;;13.00;99.90;;;;;;5052718;28;20060;-79
2023/05/28 19:47:11;;;;;;;13.43;2.78;;;12.90;99.90;;;;;;5022072;28;20048;-79
2023/05/28 19:49:59;;;;;;;16.63;3.35;;;12.90;99.90;;;;;;5035417;28;20067;-81
2023/05/28 19:52:45;;;;;;;14.40;3.17;;;12.90;99.90;;;;;;5038332;28;20094;-79
2023/05/28 19:55:33;;;;;;;14.82;3.47;;;12.80;99.90;;;;;;5022261;28;20529;-81
2023/05/28 19:58:21;;;;;;;16.88;3.55;;;12.80;99.90;;;;;;5053618;28;20060;-78
2023/05/28 20:01:07;;;;;;;16.88;3.22;;;12.70;99.90;;;;;;5052832;28;20048;-80
2023/05/28 20:03:53;;;;;;;17.27;3.10;;;12.70;99.90;;;;;;5034512;28;20041;-81